createdAt,value
2018-05-15T00:01:04.954Z,68.40
2018-05-15T00:03:33.226Z,69.10
2018-05-15T00:06:01.296Z,67.50
2018-05-15T00:08:30.226Z,70.10
2018-05-15T00:10:58.519Z,70.10
2018-05-15T00:13:26.570Z,70.30
2018-05-15T00:15:56.266Z,70.30
2018-05-15T00:18:24.617Z,70.30
2018-05-15T00:20:53.371Z,71.00
2018-05-15T00:23:22.051Z,71.00
2018-05-15T00:25:51.474Z,71.00
2018-05-15T00:28:19.693Z,71.70
2018-05-15T00:30:49.217Z,71.40
2018-05-15T00:33:18.523Z,71.30
2018-05-15T00:35:47.301Z,72.20
2018-05-15T00:38:16.216Z,72.50
2018-05-15T00:40:44.552Z,72.50
2018-05-15T00:43:12.873Z,72.20
2018-05-15T00:45:41.405Z,72.20
2018-05-15T00:48:10.013Z,71.20
2018-05-15T00:50:38.373Z,71.20
2018-05-15T00:53:06.725Z,71.20
2018-05-15T00:55:44.254Z,71.30
2018-05-15T00:58:13.464Z,70.30
2018-05-15T01:00:41.579Z,71.00
2018-05-15T01:03:10.290Z,70.40
2018-05-15T01:05:38.939Z,71.10
2018-05-15T01:08:07.763Z,70.40
2018-05-15T01:10:36.921Z,71.30
2018-05-15T01:13:05.557Z,70.70
2018-05-15T01:15:34.568Z,70.90
2018-05-15T01:18:03.827Z,70.80
2018-05-15T01:20:32.864Z,70.20
2018-05-15T01:23:01.518Z,70.20
2018-05-15T01:25:30.255Z,70.50
2018-05-15T01:27:58.724Z,70.50
2018-05-15T01:30:26.981Z,70.80
2018-05-15T01:32:55.304Z,70.80
2018-05-15T01:35:24.018Z,69.40
2018-05-15T01:37:52.297Z,70.40
2018-05-15T01:40:20.606Z,70.90
2018-05-15T01:42:49.812Z,70.40
2018-05-15T01:45:18.990Z,70.40
2018-05-15T01:47:48.797Z,72.60
2018-05-15T01:50:17.414Z,72.70
2018-05-15T01:52:46.904Z,72.40
2018-05-15T01:55:15.925Z,72.40
2018-05-15T01:57:45.019Z,72.20
2018-05-15T02:00:13.663Z,72.30
2018-05-15T02:02:42.283Z,72.60
2018-05-15T02:05:11.244Z,72.60
2018-05-15T02:07:40.711Z,71.80
2018-05-15T02:10:09.131Z,71.80
2018-05-15T02:12:38.029Z,72.10
2018-05-15T02:15:06.996Z,73.60
2018-05-15T02:17:35.715Z,73.60
2018-05-15T02:20:04.790Z,72.90
2018-05-15T02:22:33.486Z,72.70
2018-05-15T02:25:02.129Z,73.10
2018-05-15T02:27:31.397Z,72.20
2018-05-15T02:30:00.277Z,72.20
2018-05-15T02:32:28.431Z,73.10
2018-05-15T02:34:56.818Z,73.50
2018-05-15T02:37:26.523Z,73.90
2018-05-15T02:39:54.959Z,73.90
2018-05-15T02:42:23.191Z,73.80
2018-05-15T02:44:51.578Z,73.10
2018-05-15T02:47:19.829Z,72.90
2018-05-15T02:49:48.703Z,73.10
2018-05-15T02:52:17.581Z,73.10
2018-05-15T02:54:47.025Z,73.00
2018-05-15T02:57:16.667Z,73.30
2018-05-15T02:59:45.307Z,73.20
2018-05-15T03:02:13.341Z,73.20
2018-05-15T03:04:42.375Z,73.80
2018-05-15T03:07:10.608Z,73.80
2018-05-15T03:09:38.969Z,73.30
2018-05-15T03:12:07.622Z,73.40
2018-05-15T03:14:36.136Z,72.90
2018-05-15T03:17:04.744Z,72.70
2018-05-15T03:19:33.212Z,72.30
2018-05-15T03:22:01.628Z,72.90
2018-05-15T03:24:30.359Z,73.60
2018-05-15T03:26:58.693Z,73.80
2018-05-15T03:29:27.275Z,73.30
2018-05-15T03:31:56.026Z,73.60
2018-05-15T03:34:25.188Z,73.80
2018-05-15T03:36:54.182Z,73.80
2018-05-15T03:39:25.734Z,74.10
2018-05-15T03:41:54.859Z,74.00
2018-05-15T03:44:25.339Z,73.90
2018-05-15T03:46:53.551Z,73.90
2018-05-15T03:49:22.429Z,73.80
2018-05-15T03:51:50.891Z,73.90
2018-05-15T03:54:19.889Z,74.20
2018-05-15T03:56:48.810Z,74.20
2018-05-15T03:59:17.603Z,74.20
2018-05-15T04:01:57.914Z,74.30
2018-05-15T04:04:38.819Z,73.60
2018-05-15T04:07:18.725Z,73.90
2018-05-15T04:09:48.568Z,74.00
2018-05-15T04:12:17.653Z,74.00
2018-05-15T04:14:46.383Z,74.20
2018-05-15T04:17:15.182Z,74.20
2018-05-15T04:19:43.274Z,74.80
2018-05-15T04:22:11.861Z,74.90
2018-05-15T04:24:40.413Z,74.50
2018-05-15T04:27:09.423Z,73.20
2018-05-15T04:29:38.512Z,74.40
2018-05-15T04:32:07.972Z,74.50
2018-05-15T04:34:36.507Z,74.50
2018-05-15T04:37:05.402Z,74.50
2018-05-15T04:39:34.194Z,74.90
2018-05-15T04:42:02.945Z,74.90
2018-05-15T04:44:31.982Z,74.40
2018-05-15T04:47:00.342Z,74.10
2018-05-15T04:49:29.160Z,74.00
2018-05-15T04:51:57.720Z,74.30
2018-05-15T04:54:25.971Z,74.90
2018-05-15T04:56:54.237Z,75.00
2018-05-15T04:59:22.177Z,74.70
2018-05-15T05:01:50.741Z,73.90
2018-05-15T05:04:20.247Z,74.10
2018-05-15T05:06:49.551Z,74.20
2018-05-15T05:09:19.162Z,73.80
2018-05-15T05:11:48.056Z,73.80
2018-05-15T05:14:16.553Z,74.30
2018-05-15T05:16:45.492Z,74.00
2018-05-15T05:19:14.528Z,75.10
2018-05-15T05:21:44.006Z,74.90
2018-05-15T05:24:12.070Z,74.80
2018-05-15T05:26:40.717Z,74.60
2018-05-15T05:29:10.104Z,75.50
2018-05-15T05:31:39.943Z,75.60
2018-05-15T05:34:08.976Z,75.60
2018-05-15T05:36:37.846Z,75.50
2018-05-15T05:39:07.061Z,75.40
2018-05-15T05:41:35.934Z,75.40
2018-05-15T05:44:04.682Z,75.60
2018-05-15T05:46:33.182Z,75.60
2018-05-15T05:49:01.978Z,75.50
2018-05-15T05:51:30.850Z,75.00
2018-05-15T05:53:59.642Z,74.40
2018-05-15T05:56:28.763Z,73.80
2018-05-15T05:58:56.778Z,73.30
2018-05-15T06:01:25.387Z,73.50
2018-05-15T06:03:54.151Z,73.50
2018-05-15T06:06:23.278Z,73.50
2018-05-15T06:08:52.297Z,73.90
2018-05-15T06:11:20.435Z,74.10
2018-05-15T06:13:49.376Z,74.20
2018-05-15T06:16:19.356Z,72.80
2018-05-15T06:18:48.152Z,72.80
2018-05-15T06:21:17.241Z,73.00
2018-05-15T06:23:45.605Z,72.90
2018-05-15T06:26:14.843Z,73.40
2018-05-15T06:28:44.138Z,73.20
2018-05-15T06:31:12.789Z,73.30
2018-05-15T06:33:41.833Z,73.50
2018-05-15T06:36:10.908Z,73.50
2018-05-15T06:38:40.017Z,73.70
2018-05-15T06:41:08.753Z,73.60
2018-05-15T06:43:38.191Z,74.00
2018-05-15T06:46:06.640Z,74.30
2018-05-15T06:48:34.945Z,73.70
2018-05-15T06:51:03.340Z,73.00
2018-05-15T06:53:31.820Z,72.50
2018-05-15T06:56:00.599Z,71.60
2018-05-15T06:58:28.889Z,69.00
2018-05-15T07:00:57.465Z,68.90
2018-05-15T07:03:25.779Z,65.70
2018-05-15T07:05:54.070Z,62.70
2018-05-15T07:08:22.713Z,61.60
2018-05-15T07:10:51.764Z,60.90
2018-05-15T07:13:21.040Z,60.70
2018-05-15T07:15:49.728Z,59.50
2018-05-15T07:18:19.151Z,59.10
2018-05-15T07:20:47.495Z,59.00
2018-05-15T07:23:15.942Z,59.10
2018-05-15T07:25:45.329Z,59.40
2018-05-15T07:28:14.277Z,59.20
2018-05-15T07:30:43.018Z,58.20
2018-05-15T07:33:12.050Z,57.90
2018-05-15T07:35:42.569Z,57.70
2018-05-15T07:38:12.193Z,58.70
2018-05-15T07:40:41.424Z,57.70
2018-05-15T07:43:11.009Z,57.80
2018-05-15T07:45:39.795Z,58.00
2018-05-15T07:48:08.624Z,56.40
2018-05-15T07:50:37.232Z,56.70
2018-05-15T07:53:07.382Z,57.00
2018-05-15T07:55:36.993Z,57.00
2018-05-15T07:58:06.233Z,56.00
2018-05-15T08:00:35.568Z,54.80
2018-05-15T08:03:05.072Z,55.00
2018-05-15T08:05:33.648Z,54.60
2018-05-15T08:08:02.482Z,54.60
2018-05-15T08:10:31.135Z,53.60
2018-05-15T08:12:59.950Z,53.70
2018-05-15T08:15:28.107Z,53.70
2018-05-15T08:17:56.303Z,54.20
2018-05-15T08:20:24.879Z,54.40
2018-05-15T08:22:53.459Z,54.50
2018-05-15T08:25:22.077Z,54.70
2018-05-15T08:27:50.405Z,54.10
2018-05-15T08:30:18.729Z,54.20
2018-05-15T08:32:48.654Z,53.10
2018-05-15T08:35:16.571Z,53.10
2018-05-15T08:37:45.219Z,54.10
2018-05-15T08:40:13.541Z,53.80
2018-05-15T08:42:42.833Z,53.40
2018-05-15T08:45:11.202Z,53.40
2018-05-15T08:47:40.221Z,52.50
2018-05-15T08:50:08.651Z,53.40
2018-05-15T08:52:36.693Z,52.60
2018-05-15T08:55:05.185Z,52.40
2018-05-15T08:57:33.818Z,51.90
2018-05-15T09:00:02.743Z,50.90
2018-05-15T09:02:30.638Z,50.90
2018-05-15T09:04:59.832Z,51.30
2018-05-15T09:07:28.062Z,51.30
2018-05-15T09:09:56.504Z,51.40
2018-05-15T09:12:25.349Z,49.60
2018-05-15T09:14:54.378Z,49.60
2018-05-15T09:17:22.562Z,49.70
2018-05-15T09:19:50.722Z,49.80
2018-05-15T09:22:19.353Z,48.40
2018-05-15T09:24:48.690Z,48.60
2018-05-15T09:27:17.627Z,47.60
2018-05-15T09:29:46.506Z,47.60
2018-05-15T09:32:14.765Z,46.60
2018-05-15T09:34:44.474Z,46.00
2018-05-15T09:37:12.765Z,46.00
2018-05-15T09:39:41.709Z,44.20
2018-05-15T09:42:10.287Z,43.30
2018-05-15T09:44:38.718Z,42.80
2018-05-15T09:47:08.060Z,42.30
2018-05-15T09:49:37.069Z,42.10
2018-05-15T09:52:05.485Z,42.10
2018-05-15T09:54:33.835Z,42.60
2018-05-15T09:57:02.866Z,43.10
2018-05-15T09:59:31.556Z,42.70
2018-05-15T10:01:59.986Z,43.40
2018-05-15T10:04:28.086Z,43.30
2018-05-15T10:06:57.054Z,44.00
2018-05-15T10:09:25.397Z,44.70
2018-05-15T10:11:54.049Z,44.50
2018-05-15T10:14:23.461Z,45.10
2018-05-15T10:16:51.904Z,45.10
2018-05-15T10:19:20.252Z,45.90
2018-05-15T10:21:48.598Z,45.90
2018-05-15T10:24:17.374Z,46.60
2018-05-15T10:26:46.206Z,46.60
2018-05-15T10:29:15.013Z,46.30
2018-05-15T10:31:44.240Z,48.10
2018-05-15T10:34:12.759Z,48.10
2018-05-15T10:36:41.336Z,47.90
2018-05-15T10:39:09.874Z,47.70
2018-05-15T10:41:38.160Z,48.10
2018-05-15T10:44:07.595Z,47.80
2018-05-15T10:46:36.105Z,47.80
2018-05-15T10:49:04.623Z,48.90
2018-05-15T10:51:33.395Z,47.80
2018-05-15T10:54:02.406Z,47.00
2018-05-15T10:56:30.583Z,46.50
2018-05-15T10:58:59.436Z,47.00
2018-05-15T11:01:28.583Z,47.20
2018-05-15T11:03:56.845Z,47.20
2018-05-15T11:06:25.091Z,47.50
2018-05-15T11:08:53.216Z,46.90
2018-05-15T11:11:22.835Z,47.20
2018-05-15T11:13:51.314Z,47.90
2018-05-15T11:16:19.182Z,47.20
2018-05-15T11:18:47.727Z,46.70
2018-05-15T11:21:28.055Z,46.00
2018-05-15T11:37:24.294Z,43.70
2018-05-15T11:39:52.684Z,43.70
2018-05-15T11:42:22.081Z,44.80
2018-05-15T11:44:50.657Z,44.30
2018-05-15T11:47:19.392Z,43.70
2018-05-15T11:49:48.865Z,44.40
2018-05-15T11:52:17.717Z,44.40
2018-05-15T11:54:45.754Z,44.40
2018-05-15T11:57:13.697Z,44.40
2018-05-15T11:59:42.581Z,43.40
2018-05-15T12:02:11.078Z,44.50
2018-05-15T12:04:40.150Z,44.50
2018-05-15T12:07:08.693Z,44.30
2018-05-15T12:09:37.870Z,44.00
2018-05-15T12:12:06.681Z,44.20
2018-05-15T12:14:35.820Z,44.30
2018-05-15T12:17:04.561Z,44.20
2018-05-15T12:19:33.013Z,44.20
2018-05-15T12:22:02.064Z,43.70
2018-05-15T12:24:30.731Z,43.70
2018-05-15T12:26:59.748Z,43.40
2018-05-15T12:29:28.162Z,43.50
2018-05-15T12:31:56.515Z,43.50
2018-05-15T12:34:24.873Z,43.50
2018-05-15T12:36:53.488Z,44.40
2018-05-15T12:39:21.959Z,43.50
2018-05-15T12:41:50.815Z,42.90
2018-05-15T12:44:19.377Z,43.40
2018-05-15T12:46:47.898Z,42.90
2018-05-15T12:49:16.542Z,43.00
2018-05-15T12:51:45.493Z,43.70
2018-05-15T12:54:14.198Z,43.60
2018-05-15T12:56:43.740Z,43.70
2018-05-15T12:59:12.439Z,43.70
2018-05-15T13:01:41.053Z,42.00
2018-05-15T13:04:09.639Z,42.40
2018-05-15T13:06:38.211Z,42.50
2018-05-15T13:09:07.146Z,41.80
2018-05-15T13:11:35.427Z,41.70
2018-05-15T13:14:03.713Z,42.10
2018-05-15T13:16:32.875Z,42.20
2018-05-15T13:19:00.989Z,42.60
2018-05-15T13:21:29.012Z,43.30
2018-05-15T13:23:57.653Z,42.40
2018-05-15T13:26:25.875Z,43.40
2018-05-15T13:28:54.553Z,42.60
2018-05-15T13:31:23.195Z,42.50
2018-05-15T13:33:51.742Z,41.80
2018-05-15T13:36:20.586Z,42.40
2018-05-15T13:38:49.316Z,43.20
2018-05-15T13:41:18.313Z,41.80
2018-05-15T13:43:46.363Z,41.60
2018-05-15T13:46:14.459Z,43.20
2018-05-15T13:48:43.431Z,41.90
2018-05-15T13:51:11.975Z,42.60
2018-05-15T13:53:40.217Z,42.60
2018-05-15T13:56:08.946Z,42.80
2018-05-15T13:58:38.034Z,42.30
2018-05-15T14:01:06.068Z,42.30
2018-05-15T14:03:34.789Z,42.40
2018-05-15T14:06:03.346Z,42.00
2018-05-15T14:08:31.926Z,41.90
2018-05-15T14:11:00.382Z,42.00
2018-05-15T14:13:28.585Z,42.40
2018-05-15T14:15:57.238Z,42.50
2018-05-15T14:18:26.167Z,43.90
2018-05-15T14:20:55.042Z,42.30
2018-05-15T14:23:23.716Z,42.20
2018-05-15T14:25:53.350Z,42.50
2018-05-15T14:28:22.108Z,42.60
2018-05-15T14:30:51.384Z,42.60
2018-05-15T14:33:20.550Z,42.80
2018-05-15T14:35:48.635Z,42.90
2018-05-15T14:38:16.962Z,42.80
2018-05-15T14:40:45.353Z,43.90
2018-05-15T14:43:23.355Z,43.30
2018-05-15T14:45:51.946Z,42.80
2018-05-15T14:48:20.311Z,42.20
2018-05-15T15:04:33.278Z,43.30
2018-05-15T15:07:02.415Z,43.50
2018-05-15T15:09:31.393Z,43.80
2018-05-15T15:12:00.709Z,44.10
2018-05-15T15:14:29.893Z,45.00
2018-05-15T15:16:58.384Z,45.00
2018-05-15T15:19:26.950Z,44.60
2018-05-15T15:21:56.095Z,45.20
2018-05-15T15:24:25.583Z,44.00
2018-05-15T15:26:54.156Z,44.10
2018-05-15T15:29:22.904Z,44.10
2018-05-15T15:31:51.611Z,43.90
2018-05-15T15:34:20.549Z,43.90
2018-05-15T15:36:49.460Z,43.80
2018-05-15T15:39:17.988Z,44.30
2018-05-15T15:41:46.174Z,43.80
2018-05-15T15:44:14.873Z,44.00
2018-05-15T15:46:44.062Z,43.00
2018-05-15T15:49:12.476Z,42.60
2018-05-15T15:51:40.899Z,42.90
2018-05-15T15:54:09.657Z,42.80
2018-05-15T15:56:38.562Z,44.70
2018-05-15T15:59:06.590Z,43.30
2018-05-15T16:01:36.047Z,42.90
2018-05-15T16:04:05.754Z,43.50
2018-05-15T16:06:34.594Z,42.40
2018-05-15T16:09:03.258Z,42.60
2018-05-15T16:11:31.768Z,42.50
2018-05-15T16:14:00.469Z,41.90
2018-05-15T16:16:29.533Z,42.10
2018-05-15T16:18:59.582Z,42.00
2018-05-15T16:21:30.314Z,41.50
2018-05-15T16:23:58.712Z,41.40
2018-05-15T16:26:26.687Z,41.00
2018-05-15T16:28:55.092Z,41.20
2018-05-15T16:31:24.571Z,40.80
2018-05-15T16:33:53.114Z,40.90
2018-05-15T16:36:22.161Z,41.00
2018-05-15T16:38:51.981Z,41.50
2018-05-15T16:41:20.637Z,41.20
2018-05-15T16:43:49.385Z,42.10
2018-05-15T16:46:18.216Z,42.10
2018-05-15T16:48:46.028Z,41.90
2018-05-15T16:51:14.680Z,41.90
2018-05-15T16:53:43.897Z,42.10
2018-05-15T16:56:13.033Z,42.10
2018-05-15T16:58:41.820Z,42.80
2018-05-15T17:01:12.507Z,43.30
2018-05-15T17:03:41.421Z,43.30
2018-05-15T17:06:11.657Z,43.70
2018-05-15T17:08:42.283Z,43.90
2018-05-15T17:11:11.828Z,44.00
2018-05-15T17:13:41.060Z,44.30
2018-05-15T17:16:11.875Z,44.40
2018-05-15T17:18:42.299Z,44.20
2018-05-15T17:21:13.002Z,45.00
2018-05-15T17:23:42.728Z,45.00
2018-05-15T17:26:13.352Z,45.20
2018-05-15T17:28:43.944Z,45.30
2018-05-15T17:31:14.706Z,45.20
2018-05-15T17:33:45.127Z,45.20
2018-05-15T17:36:15.255Z,45.30
2018-05-15T17:38:45.061Z,45.40
2018-05-15T17:41:15.684Z,45.50
2018-05-15T17:43:45.686Z,45.60
2018-05-15T17:46:15.645Z,45.60
2018-05-15T17:48:46.293Z,45.70
2018-05-15T17:51:15.484Z,46.00
2018-05-15T17:53:44.533Z,45.90
2018-05-15T17:56:14.491Z,46.00
2018-05-15T17:58:44.933Z,46.40
2018-05-15T18:01:14.629Z,46.40
2018-05-15T18:03:44.842Z,47.00
2018-05-15T18:06:15.724Z,46.70
2018-05-15T18:08:44.739Z,46.70
2018-05-15T18:11:14.421Z,46.90
2018-05-15T18:13:44.652Z,47.30
2018-05-15T18:16:14.436Z,46.90
2018-05-15T18:18:44.605Z,48.20
2018-05-15T18:21:15.170Z,48.60
2018-05-15T18:23:45.619Z,48.60
2018-05-15T18:26:16.729Z,48.80
2018-05-15T18:28:46.946Z,48.80
2018-05-15T18:31:16.350Z,48.40
2018-05-15T18:33:46.114Z,48.00
2018-05-15T18:36:14.976Z,48.00
2018-05-15T18:38:44.595Z,48.40
2018-05-15T18:41:13.678Z,49.00
2018-05-15T18:43:43.057Z,50.20
2018-05-15T18:46:12.654Z,56.10
2018-05-15T18:48:41.474Z,56.20
2018-05-15T18:51:09.956Z,58.10
2018-05-15T18:53:38.705Z,58.80
2018-05-15T18:56:08.511Z,59.80
2018-05-15T18:58:37.310Z,60.20
2018-05-15T19:01:05.964Z,61.20
2018-05-15T19:03:34.971Z,60.90
2018-05-15T19:06:03.439Z,61.80
2018-05-15T19:08:32.424Z,62.00
2018-05-15T19:11:01.923Z,61.80
2018-05-15T19:13:31.098Z,61.50
2018-05-15T19:16:00.615Z,62.10
2018-05-15T19:18:28.868Z,61.40
2018-05-15T19:20:58.259Z,61.80
2018-05-15T19:23:27.348Z,61.80
2018-05-15T19:25:56.552Z,61.40
2018-05-15T19:28:25.700Z,61.00
2018-05-15T19:30:55.148Z,61.00
2018-05-15T19:33:30.066Z,61.00
2018-05-15T19:36:04.566Z,62.80
2018-05-15T19:38:33.399Z,64.20
2018-05-15T19:41:02.547Z,64.20
2018-05-15T19:43:31.278Z,63.20
2018-05-15T19:45:59.862Z,63.40
2018-05-15T19:48:28.075Z,63.60
2018-05-15T19:50:57.156Z,63.80
2018-05-15T19:53:26.251Z,64.20
2018-05-15T19:55:55.657Z,64.40
2018-05-15T19:58:24.549Z,63.90
2018-05-15T20:00:53.172Z,64.10
2018-05-15T20:03:21.987Z,64.30
2018-05-15T20:05:50.778Z,64.80
2018-05-15T20:08:19.597Z,64.40
2018-05-15T20:10:48.816Z,65.10
2018-05-15T20:13:17.390Z,65.10
2018-05-15T20:15:46.501Z,65.60
2018-05-15T20:18:15.797Z,65.60
2018-05-15T20:20:44.942Z,65.50
2018-05-15T20:23:14.460Z,65.90
2018-05-15T20:25:43.828Z,65.60
2018-05-15T20:28:12.334Z,66.00
2018-05-15T20:30:42.082Z,65.90
2018-05-15T20:33:11.948Z,65.80
2018-05-15T20:35:40.403Z,65.20
2018-05-15T20:38:09.063Z,66.20
2018-05-15T20:40:38.001Z,66.30
2018-05-15T20:43:06.725Z,66.80
2018-05-15T20:45:35.526Z,66.50
2018-05-15T20:48:04.551Z,66.00
2018-05-15T20:50:33.510Z,66.00
2018-05-15T20:53:02.525Z,66.20
2018-05-15T20:55:31.239Z,66.40
2018-05-15T20:58:00.517Z,66.30
2018-05-15T21:00:29.153Z,66.30
2018-05-15T21:02:57.606Z,66.50
2018-05-15T21:05:26.772Z,66.60
2018-05-15T21:07:55.782Z,66.80
2018-05-15T21:10:25.038Z,66.90
2018-05-15T21:12:54.254Z,67.10
2018-05-15T21:15:23.305Z,67.30
2018-05-15T21:17:52.364Z,67.20
2018-05-15T21:20:22.939Z,67.40
2018-05-15T21:22:52.054Z,67.50
2018-05-15T21:25:20.263Z,67.90
2018-05-15T21:27:49.066Z,67.90
2018-05-15T21:30:17.723Z,68.10
2018-05-15T21:32:47.702Z,67.70
2018-05-15T21:35:17.113Z,68.10
2018-05-15T21:37:45.901Z,68.10
2018-05-15T21:40:14.473Z,68.10
2018-05-15T21:42:42.975Z,68.00
2018-05-15T21:45:12.070Z,68.00
2018-05-15T21:47:41.251Z,68.10
2018-05-15T21:50:10.135Z,68.30
2018-05-15T21:52:40.396Z,68.70
2018-05-15T21:55:09.327Z,69.10
2018-05-15T21:57:38.523Z,69.00
2018-05-15T22:00:07.755Z,68.80
2018-05-15T22:02:36.055Z,69.00
2018-05-15T22:05:04.900Z,69.40
2018-05-15T22:07:34.930Z,69.00
2018-05-15T22:10:04.358Z,68.70
2018-05-15T22:12:44.821Z,68.70
2018-05-15T22:15:25.704Z,68.60
2018-05-15T22:18:06.463Z,69.10
2018-05-15T22:20:47.154Z,69.20
2018-05-15T22:23:15.242Z,69.00
2018-05-15T22:25:43.468Z,69.60
2018-05-15T22:28:12.266Z,70.00
2018-05-15T22:30:41.036Z,70.10
2018-05-15T22:33:10.090Z,70.10
2018-05-15T22:35:39.115Z,70.10
2018-05-15T22:38:08.171Z,70.10
2018-05-15T22:40:37.275Z,69.70
2018-05-15T22:43:06.282Z,69.70
2018-05-15T22:45:35.140Z,70.00
2018-05-15T22:48:05.134Z,69.60
2018-05-15T22:50:34.678Z,69.90
2018-05-15T22:53:03.758Z,69.90
2018-05-15T22:55:32.709Z,70.00
2018-05-15T22:58:01.472Z,70.00
2018-05-15T23:00:29.933Z,70.20
2018-05-15T23:02:58.932Z,70.20
2018-05-15T23:05:28.215Z,70.10
2018-05-15T23:07:56.888Z,70.00
2018-05-15T23:10:26.496Z,70.30
2018-05-15T23:12:55.730Z,70.30
2018-05-15T23:15:25.332Z,70.80
2018-05-15T23:17:54.695Z,70.80
2018-05-15T23:20:23.811Z,70.70
2018-05-15T23:22:53.059Z,70.70
2018-05-15T23:25:21.697Z,70.30
2018-05-15T23:27:50.299Z,70.40
2018-05-15T23:30:19.722Z,70.70
2018-05-15T23:32:48.787Z,71.40
2018-05-15T23:35:18.490Z,71.40
2018-05-15T23:37:47.769Z,71.40
2018-05-15T23:40:16.161Z,72.30
2018-05-15T23:42:46.109Z,71.80
2018-05-15T23:45:14.906Z,71.60
2018-05-15T23:47:44.891Z,72.20
2018-05-15T23:50:14.244Z,71.30
2018-05-15T23:52:43.663Z,71.70
2018-05-15T23:55:12.477Z,71.70
2018-05-15T23:57:41.464Z,72.00
